Flugplatz Nabern/Teck

EDTN · 巴登-符腾堡, 德国

罗盘
风向 的 风向 350° Nabern/Teck Airport 14/32
风: 5 kt, 2 beaufort

4 kt

3 kt
改变
0 1.000 2.000 3.000 4.000 5.000
BKN 700 ft
METAR EDDS 292350Z AUTO 35005KT 6000 -RADZ BKN007 05/05 Q1019

METAR Nabern/Teck Airport - EDTN

Nabern/Teck Airport是,德国中的小机场。 该机场有一条跑道: 14/32. 该领域的国际民航组织标志是EDTN.

这份报告是针对2022年11月30日 00:50, 当地时间在Stuttgart Airport进行的。

机场观察

风向为350°,速度为5 kt。

可见度为6 km。

有碎云在700 ft的高度。 破损或更高的上限为700 ft。

当前天气为光 雨 细雨。 温度为5 °C,阵风为1 °C。 露点为5 °C,相对湿度为100%。 海平面上的气压为1019 hPa (QNH)。

白天

今天,太阳从07:51升起,在16:29降落。 这适用于Nabern/Teck Airport,世界夏令时可能有所不同。 当地时间与世界标准时间之间的时差为+1 小时。 当前,没有夏令时有效。

公司介绍

我们没有关于这个机场的公司信息。

体会

到Vliegles.nl去找飞行课程,跳伞和其他飞行体验。 浏览页面,了解Nabern/Teck Airport附近所有可用的活动。 你也可以使用搜索功能来寻找你所在地附近的特定飞行课程、跳伞或其他飞行体验。

跑道

Id 标题 侧风 逆风 侧风 %
14/32 135°-315° 3 kt 4 kt 57 %

逆风成分最大的方向会被突出显示,并用于横风计算。 这并不一定意味着这个方向在使用。

乌云

700 ft BKN 碎云

温度 & 天气

天气 光 雨 细雨
温度 5 °C
露点 5 °C
相对湿度 100%
风寒 1 °C
Kp-index 2 (0-9)

白天

日出
07:51 (6:49)
中午
12:11
日落
16:30

小工具

你想在你的网站上有一个关于Nabern/Teck Airport的当前航空天气(METAR)的小部件吗?

显示HTML代码

我们和第三方通过cookies跟踪您在我们网站上的互联网行为。如果你继续,我们认为你同意我们的饼干政策